sensor_id;sensor_type;location;lat;lon;timestamp;P1;durP1;ratioP1;P2;durP2;ratioP2
4808;SDS011;2418;49.930;8.606;2023-10-13T00:01:18;12.88;;;7.53;;
4808;SDS011;2418;49.930;8.606;2023-10-13T00:03:44;15.35;;;7.65;;
4808;SDS011;2418;49.930;8.606;2023-10-13T00:06:10;19.92;;;8.02;;
4808;SDS011;2418;49.930;8.606;2023-10-13T00:08:36;11.98;;;7.45;;
4808;SDS011;2418;49.930;8.606;2023-10-13T00:11:03;14.32;;;7.72;;
4808;SDS011;2418;49.930;8.606;2023-10-13T00:13:29;14.50;;;7.70;;
4808;SDS011;2418;49.930;8.606;2023-10-13T00:16:14;12.48;;;7.78;;
4808;SDS011;2418;49.930;8.606;2023-10-13T00:18:46;14.05;;;8.10;;
4808;SDS011;2418;49.930;8.606;2023-10-13T00:21:13;8.52;;;7.45;;
4808;SDS011;2418;49.930;8.606;2023-10-13T00:23:40;18.00;;;8.25;;
4808;SDS011;2418;49.930;8.606;2023-10-13T00:26:30;10.38;;;6.90;;
4808;SDS011;2418;49.930;8.606;2023-10-13T00:29:00;11.73;;;7.50;;
4808;SDS011;2418;49.930;8.606;2023-10-13T00:31:32;10.80;;;7.60;;
4808;SDS011;2418;49.930;8.606;2023-10-13T00:34:01;12.48;;;7.43;;
4808;SDS011;2418;49.930;8.606;2023-10-13T00:36:54;12.07;;;8.07;;
4808;SDS011;2418;49.930;8.606;2023-10-13T00:39:46;12.35;;;7.07;;
4808;SDS011;2418;49.930;8.606;2023-10-13T00:42:12;14.70;;;7.10;;
4808;SDS011;2418;49.930;8.606;2023-10-13T00:44:48;14.27;;;7.20;;
4808;SDS011;2418;49.930;8.606;2023-10-13T00:47:18;13.30;;;7.90;;
4808;SDS011;2418;49.930;8.606;2023-10-13T00:49:57;11.15;;;7.72;;
4808;SDS011;2418;49.930;8.606;2023-10-13T00:52:25;15.33;;;7.83;;
4808;SDS011;2418;49.930;8.606;2023-10-13T00:54:51;12.23;;;8.48;;
4808;SDS011;2418;49.930;8.606;2023-10-13T00:57:18;17.90;;;7.80;;
4808;SDS011;2418;49.930;8.606;2023-10-13T00:59:51;11.52;;;7.15;;
4808;SDS011;2418;49.930;8.606;2023-10-13T01:02:18;21.58;;;7.90;;
4808;SDS011;2418;49.930;8.606;2023-10-13T01:05:05;9.55;;;6.93;;
4808;SDS011;2418;49.930;8.606;2023-10-13T01:07:34;12.38;;;7.30;;
4808;SDS011;2418;49.930;8.606;2023-10-13T01:10:02;13.17;;;8.47;;
4808;SDS011;2418;49.930;8.606;2023-10-13T01:12:29;16.50;;;7.70;;
4808;SDS011;2418;49.930;8.606;2023-10-13T01:14:56;14.95;;;7.90;;
4808;SDS011;2418;49.930;8.606;2023-10-13T01:17:22;10.70;;;7.78;;
4808;SDS011;2418;49.930;8.606;2023-10-13T01:19:48;16.70;;;7.60;;
4808;SDS011;2418;49.930;8.606;2023-10-13T01:22:14;13.70;;;7.88;;
4808;SDS011;2418;49.930;8.606;2023-10-13T01:24:40;13.15;;;6.93;;
4808;SDS011;2418;49.930;8.606;2023-10-13T01:27:07;19.60;;;8.10;;
4808;SDS011;2418;49.930;8.606;2023-10-13T01:29:43;14.95;;;8.15;;
4808;SDS011;2418;49.930;8.606;2023-10-13T01:32:22;23.90;;;8.27;;
4808;SDS011;2418;49.930;8.606;2023-10-13T01:34:48;12.60;;;7.40;;
4808;SDS011;2418;49.930;8.606;2023-10-13T01:37:15;12.15;;;7.57;;
4808;SDS011;2418;49.930;8.606;2023-10-13T01:39:42;10.57;;;7.97;;
4808;SDS011;2418;49.930;8.606;2023-10-13T01:42:12;8.38;;;7.47;;
4808;SDS011;2418;49.930;8.606;2023-10-13T01:44:44;17.05;;;8.55;;
4808;SDS011;2418;49.930;8.606;2023-10-13T01:47:10;11.67;;;7.80;;
4808;SDS011;2418;49.930;8.606;2023-10-13T01:49:37;14.10;;;7.70;;
4808;SDS011;2418;49.930;8.606;2023-10-13T01:52:08;13.68;;;8.40;;
4808;SDS011;2418;49.930;8.606;2023-10-13T01:54:36;10.82;;;7.32;;
4808;SDS011;2418;49.930;8.606;2023-10-13T01:57:06;21.33;;;8.38;;
4808;SDS011;2418;49.930;8.606;2023-10-13T01:59:32;14.60;;;8.50;;
4808;SDS011;2418;49.930;8.606;2023-10-13T02:01:58;12.03;;;8.00;;
4808;SDS011;2418;49.930;8.606;2023-10-13T02:04:29;10.65;;;8.10;;
4808;SDS011;2418;49.930;8.606;2023-10-13T02:07:07;17.50;;;8.25;;
4808;SDS011;2418;49.930;8.606;2023-10-13T02:09:33;14.40;;;8.30;;
4808;SDS011;2418;49.930;8.606;2023-10-13T02:12:02;9.80;;;7.70;;
4808;SDS011;2418;49.930;8.606;2023-10-13T02:14:28;11.63;;;7.18;;
4808;SDS011;2418;49.930;8.606;2023-10-13T02:16:58;13.90;;;7.10;;
4808;SDS011;2418;49.930;8.606;2023-10-13T02:19:41;12.88;;;7.45;;
4808;SDS011;2418;49.930;8.606;2023-10-13T02:22:10;19.05;;;8.65;;
4808;SDS011;2418;49.930;8.606;2023-10-13T02:24:37;21.35;;;7.93;;
4808;SDS011;2418;49.930;8.606;2023-10-13T02:27:06;15.35;;;7.25;;
4808;SDS011;2418;49.930;8.606;2023-10-13T02:29:39;22.15;;;8.50;;
4808;SDS011;2418;49.930;8.606;2023-10-13T02:32:05;15.50;;;8.13;;
4808;SDS011;2418;49.930;8.606;2023-10-13T02:34:38;14.20;;;8.10;;
4808;SDS011;2418;49.930;8.606;2023-10-13T02:37:10;12.85;;;7.82;;
4808;SDS011;2418;49.930;8.606;2023-10-13T02:39:36;17.92;;;8.88;;
4808;SDS011;2418;49.930;8.606;2023-10-13T02:42:06;16.83;;;7.82;;
4808;SDS011;2418;49.930;8.606;2023-10-13T02:44:32;17.13;;;9.17;;
4808;SDS011;2418;49.930;8.606;2023-10-13T02:47:01;17.10;;;8.43;;
4808;SDS011;2418;49.930;8.606;2023-10-13T02:49:31;17.40;;;8.18;;
4808;SDS011;2418;49.930;8.606;2023-10-13T02:52:02;15.05;;;9.20;;
4808;SDS011;2418;49.930;8.606;2023-10-13T02:54:33;17.73;;;8.80;;
4808;SDS011;2418;49.930;8.606;2023-10-13T02:57:04;17.88;;;8.57;;
4808;SDS011;2418;49.930;8.606;2023-10-13T02:59:31;15.75;;;9.10;;
4808;SDS011;2418;49.930;8.606;2023-10-13T03:02:05;18.00;;;8.25;;
4808;SDS011;2418;49.930;8.606;2023-10-13T03:04:52;21.20;;;9.10;;
4808;SDS011;2418;49.930;8.606;2023-10-13T03:07:24;11.07;;;8.40;;
4808;SDS011;2418;49.930;8.606;2023-10-13T03:09:57;22.30;;;9.77;;
4808;SDS011;2418;49.930;8.606;2023-10-13T03:12:25;17.48;;;9.52;;
4808;SDS011;2418;49.930;8.606;2023-10-13T03:14:58;18.23;;;9.13;;
4808;SDS011;2418;49.930;8.606;2023-10-13T03:17:38;12.30;;;8.20;;
4808;SDS011;2418;49.930;8.606;2023-10-13T03:20:17;17.30;;;9.32;;
4808;SDS011;2418;49.930;8.606;2023-10-13T03:22:48;13.82;;;8.88;;
4808;SDS011;2418;49.930;8.606;2023-10-13T03:25:17;14.13;;;9.38;;
4808;SDS011;2418;49.930;8.606;2023-10-13T03:27:49;21.60;;;9.80;;
4808;SDS011;2418;49.930;8.606;2023-10-13T03:30:15;11.32;;;8.93;;
4808;SDS011;2418;49.930;8.606;2023-10-13T03:32:44;11.00;;;8.70;;
4808;SDS011;2418;49.930;8.606;2023-10-13T03:35:12;16.60;;;9.45;;
4808;SDS011;2418;49.930;8.606;2023-10-13T03:37:50;13.45;;;9.75;;
4808;SDS011;2418;49.930;8.606;2023-10-13T03:40:17;18.95;;;9.30;;
4808;SDS011;2418;49.930;8.606;2023-10-13T03:42:46;17.52;;;8.88;;
4808;SDS011;2418;49.930;8.606;2023-10-13T03:45:44;18.75;;;8.80;;
4808;SDS011;2418;49.930;8.606;2023-10-13T03:48:18;26.08;;;10.18;;
4808;SDS011;2418;49.930;8.606;2023-10-13T03:50:50;15.93;;;9.00;;
4808;SDS011;2418;49.930;8.606;2023-10-13T03:53:29;13.93;;;8.63;;
4808;SDS011;2418;49.930;8.606;2023-10-13T03:56:07;13.90;;;8.57;;
4808;SDS011;2418;49.930;8.606;2023-10-13T03:58:33;24.08;;;9.48;;
4808;SDS011;2418;49.930;8.606;2023-10-13T04:01:00;13.97;;;8.40;;
4808;SDS011;2418;49.930;8.606;2023-10-13T04:03:26;12.18;;;9.10;;
4808;SDS011;2418;49.930;8.606;2023-10-13T04:06:07;11.52;;;8.00;;
4808;SDS011;2418;49.930;8.606;2023-10-13T04:08:41;15.90;;;9.00;;
4808;SDS011;2418;49.930;8.606;2023-10-13T04:11:07;20.35;;;8.82;;
4808;SDS011;2418;49.930;8.606;2023-10-13T04:13:51;14.68;;;8.20;;
4808;SDS011;2418;49.930;8.606;2023-10-13T04:16:35;11.40;;;7.90;;
4808;SDS011;2418;49.930;8.606;2023-10-13T04:19:03;16.05;;;8.00;;
4808;SDS011;2418;49.930;8.606;2023-10-13T04:21:33;10.23;;;8.38;;
4808;SDS011;2418;49.930;8.606;2023-10-13T04:24:08;11.90;;;8.27;;
4808;SDS011;2418;49.930;8.606;2023-10-13T04:26:43;17.17;;;9.03;;
4808;SDS011;2418;49.930;8.606;2023-10-13T04:29:28;14.55;;;7.47;;
4808;SDS011;2418;49.930;8.606;2023-10-13T04:32:13;19.95;;;8.52;;
4808;SDS011;2418;49.930;8.606;2023-10-13T04:34:40;15.75;;;8.75;;
4808;SDS011;2418;49.930;8.606;2023-10-13T04:37:13;14.15;;;7.78;;
4808;SDS011;2418;49.930;8.606;2023-10-13T04:39:55;12.60;;;7.93;;
4808;SDS011;2418;49.930;8.606;2023-10-13T04:42:24;17.08;;;7.70;;
4808;SDS011;2418;49.930;8.606;2023-10-13T04:45:25;14.63;;;7.72;;
4808;SDS011;2418;49.930;8.606;2023-10-13T04:47:57;14.88;;;8.48;;
4808;SDS011;2418;49.930;8.606;2023-10-13T04:50:51;17.23;;;7.70;;
4808;SDS011;2418;49.930;8.606;2023-10-13T04:53:23;11.55;;;8.27;;
4808;SDS011;2418;49.930;8.606;2023-10-13T04:55:59;10.95;;;7.10;;
4808;SDS011;2418;49.930;8.606;2023-10-13T04:58:28;13.77;;;8.45;;
4808;SDS011;2418;49.930;8.606;2023-10-13T05:01:03;14.88;;;8.43;;
4808;SDS011;2418;49.930;8.606;2023-10-13T05:04:03;15.20;;;7.73;;
4808;SDS011;2418;49.930;8.606;2023-10-13T05:06:55;9.52;;;8.20;;
4808;SDS011;2418;49.930;8.606;2023-10-13T05:09:40;16.02;;;8.82;;
4808;SDS011;2418;49.930;8.606;2023-10-13T05:12:24;11.95;;;8.10;;
4808;SDS011;2418;49.930;8.606;2023-10-13T05:15:09;18.23;;;8.20;;
4808;SDS011;2418;49.930;8.606;2023-10-13T05:17:53;13.70;;;7.40;;
4808;SDS011;2418;49.930;8.606;2023-10-13T05:20:38;23.42;;;8.15;;
4808;SDS011;2418;49.930;8.606;2023-10-13T05:23:22;12.05;;;7.20;;
4808;SDS011;2418;49.930;8.606;2023-10-13T05:26:07;21.65;;;8.27;;
4808;SDS011;2418;49.930;8.606;2023-10-13T05:28:52;11.05;;;7.55;;
4808;SDS011;2418;49.930;8.606;2023-10-13T05:31:36;14.52;;;7.55;;
4808;SDS011;2418;49.930;8.606;2023-10-13T05:34:21;17.70;;;8.13;;
4808;SDS011;2418;49.930;8.606;2023-10-13T05:37:06;11.63;;;8.00;;
4808;SDS011;2418;49.930;8.606;2023-10-13T05:39:50;17.67;;;7.85;;
4808;SDS011;2418;49.930;8.606;2023-10-13T05:42:35;12.02;;;7.90;;
4808;SDS011;2418;49.930;8.606;2023-10-13T05:45:19;17.95;;;7.60;;
4808;SDS011;2418;49.930;8.606;2023-10-13T05:48:01;17.35;;;8.80;;
4808;SDS011;2418;49.930;8.606;2023-10-13T05:50:36;11.77;;;7.57;;
4808;SDS011;2418;49.930;8.606;2023-10-13T05:53:22;18.13;;;7.45;;
4808;SDS011;2418;49.930;8.606;2023-10-13T05:56:07;16.25;;;7.75;;
4808;SDS011;2418;49.930;8.606;2023-10-13T05:58:51;13.75;;;7.03;;
4808;SDS011;2418;49.930;8.606;2023-10-13T06:01:36;17.40;;;7.90;;
4808;SDS011;2418;49.930;8.606;2023-10-13T06:04:20;16.38;;;8.68;;
4808;SDS011;2418;49.930;8.606;2023-10-13T06:07:05;9.03;;;7.10;;
4808;SDS011;2418;49.930;8.606;2023-10-13T06:09:51;15.88;;;7.88;;
4808;SDS011;2418;49.930;8.606;2023-10-13T06:12:35;15.55;;;8.10;;
4808;SDS011;2418;49.930;8.606;2023-10-13T06:15:20;9.43;;;6.80;;
4808;SDS011;2418;49.930;8.606;2023-10-13T06:18:05;12.65;;;7.03;;
4808;SDS011;2418;49.930;8.606;2023-10-13T06:20:49;11.63;;;6.95;;
4808;SDS011;2418;49.930;8.606;2023-10-13T06:23:34;15.27;;;7.47;;
4808;SDS011;2418;49.930;8.606;2023-10-13T06:26:18;12.02;;;7.35;;
4808;SDS011;2418;49.930;8.606;2023-10-13T06:29:03;14.25;;;7.30;;
4808;SDS011;2418;49.930;8.606;2023-10-13T06:31:32;10.65;;;7.13;;
4808;SDS011;2418;49.930;8.606;2023-10-13T06:33:59;10.88;;;6.63;;
4808;SDS011;2418;49.930;8.606;2023-10-13T06:36:28;12.65;;;7.30;;
4808;SDS011;2418;49.930;8.606;2023-10-13T06:38:54;13.25;;;7.07;;
4808;SDS011;2418;49.930;8.606;2023-10-13T06:41:20;9.87;;;6.83;;
4808;SDS011;2418;49.930;8.606;2023-10-13T06:43:55;11.43;;;7.00;;
4808;SDS011;2418;49.930;8.606;2023-10-13T06:46:24;9.85;;;6.50;;
4808;SDS011;2418;49.930;8.606;2023-10-13T06:48:50;10.07;;;6.43;;
4808;SDS011;2418;49.930;8.606;2023-10-13T06:51:29;11.13;;;6.40;;
4808;SDS011;2418;49.930;8.606;2023-10-13T06:54:04;9.88;;;6.30;;
4808;SDS011;2418;49.930;8.606;2023-10-13T06:56:34;11.35;;;5.80;;
4808;SDS011;2418;49.930;8.606;2023-10-13T06:59:04;12.40;;;6.43;;
4808;SDS011;2418;49.930;8.606;2023-10-13T07:01:31;8.03;;;5.90;;
4808;SDS011;2418;49.930;8.606;2023-10-13T07:04:07;15.33;;;6.70;;
4808;SDS011;2418;49.930;8.606;2023-10-13T07:06:40;10.48;;;6.60;;
4808;SDS011;2418;49.930;8.606;2023-10-13T07:09:12;12.35;;;6.70;;
4808;SDS011;2418;49.930;8.606;2023-10-13T07:11:59;16.85;;;6.47;;
4808;SDS011;2418;49.930;8.606;2023-10-13T07:14:48;13.73;;;6.90;;
4808;SDS011;2418;49.930;8.606;2023-10-13T07:17:17;10.73;;;6.00;;
4808;SDS011;2418;49.930;8.606;2023-10-13T07:19:53;10.77;;;6.30;;
4808;SDS011;2418;49.930;8.606;2023-10-13T07:22:21;12.02;;;6.30;;
4808;SDS011;2418;49.930;8.606;2023-10-13T07:24:48;14.20;;;6.35;;
4808;SDS011;2418;49.930;8.606;2023-10-13T07:27:20;9.05;;;6.55;;
4808;SDS011;2418;49.930;8.606;2023-10-13T07:29:54;15.25;;;6.45;;
4808;SDS011;2418;49.930;8.606;2023-10-13T07:32:41;7.97;;;5.67;;
4808;SDS011;2418;49.930;8.606;2023-10-13T07:35:14;7.32;;;6.05;;
4808;SDS011;2418;49.930;8.606;2023-10-13T07:37:41;13.80;;;6.28;;
4808;SDS011;2418;49.930;8.606;2023-10-13T07:40:08;10.35;;;5.72;;
4808;SDS011;2418;49.930;8.606;2023-10-13T07:42:49;10.65;;;6.35;;
4808;SDS011;2418;49.930;8.606;2023-10-13T07:45:15;13.80;;;6.35;;
4808;SDS011;2418;49.930;8.606;2023-10-13T07:47:47;13.23;;;6.18;;
4808;SDS011;2418;49.930;8.606;2023-10-13T07:50:15;12.10;;;6.60;;
4808;SDS011;2418;49.930;8.606;2023-10-13T07:52:49;12.32;;;6.22;;
4808;SDS011;2418;49.930;8.606;2023-10-13T07:55:31;12.88;;;6.53;;
4808;SDS011;2418;49.930;8.606;2023-10-13T07:58:04;19.73;;;6.13;;
4808;SDS011;2418;49.930;8.606;2023-10-13T08:00:41;8.55;;;5.70;;
4808;SDS011;2418;49.930;8.606;2023-10-13T08:03:19;7.72;;;5.82;;
4808;SDS011;2418;49.930;8.606;2023-10-13T08:06:00;7.30;;;5.00;;
4808;SDS011;2418;49.930;8.606;2023-10-13T08:08:38;10.82;;;6.28;;
4808;SDS011;2418;49.930;8.606;2023-10-13T08:11:17;11.98;;;5.72;;
4808;SDS011;2418;49.930;8.606;2023-10-13T08:13:55;6.78;;;5.72;;
4808;SDS011;2418;49.930;8.606;2023-10-13T08:16:35;11.13;;;5.53;;
4808;SDS011;2418;49.930;8.606;2023-10-13T08:19:18;10.30;;;5.90;;
4808;SDS011;2418;49.930;8.606;2023-10-13T08:21:45;20.70;;;6.25;;
4808;SDS011;2418;49.930;8.606;2023-10-13T08:24:22;8.05;;;5.70;;
4808;SDS011;2418;49.930;8.606;2023-10-13T08:27:04;12.10;;;5.37;;
4808;SDS011;2418;49.930;8.606;2023-10-13T08:29:42;8.23;;;4.75;;
4808;SDS011;2418;49.930;8.606;2023-10-13T08:32:34;7.63;;;5.10;;
4808;SDS011;2418;49.930;8.606;2023-10-13T08:35:23;15.52;;;5.55;;
4808;SDS011;2418;49.930;8.606;2023-10-13T08:37:58;8.30;;;5.45;;
4808;SDS011;2418;49.930;8.606;2023-10-13T08:40:46;8.18;;;5.00;;
4808;SDS011;2418;49.930;8.606;2023-10-13T08:43:23;9.48;;;4.70;;
4808;SDS011;2418;49.930;8.606;2023-10-13T08:46:05;6.00;;;4.97;;
4808;SDS011;2418;49.930;8.606;2023-10-13T08:48:49;7.97;;;4.50;;
4808;SDS011;2418;49.930;8.606;2023-10-13T08:51:16;12.52;;;5.15;;
4808;SDS011;2418;49.930;8.606;2023-10-13T08:53:56;4.90;;;4.60;;
4808;SDS011;2418;49.930;8.606;2023-10-13T08:56:33;14.98;;;5.20;;
4808;SDS011;2418;49.930;8.606;2023-10-13T08:59:12;6.85;;;4.70;;
4808;SDS011;2418;49.930;8.606;2023-10-13T09:01:47;6.63;;;4.70;;
4808;SDS011;2418;49.930;8.606;2023-10-13T09:04:17;7.00;;;4.93;;
4808;SDS011;2418;49.930;8.606;2023-10-13T09:07:07;5.75;;;4.18;;
4808;SDS011;2418;49.930;8.606;2023-10-13T09:09:50;9.70;;;4.65;;
4808;SDS011;2418;49.930;8.606;2023-10-13T09:12:36;7.00;;;4.85;;
4808;SDS011;2418;49.930;8.606;2023-10-13T09:15:06;9.00;;;4.70;;
4808;SDS011;2418;49.930;8.606;2023-10-13T09:17:42;9.50;;;4.10;;
4808;SDS011;2418;49.930;8.606;2023-10-13T09:20:38;8.02;;;4.88;;
4808;SDS011;2418;49.930;8.606;2023-10-13T09:23:10;7.68;;;4.65;;
4808;SDS011;2418;49.930;8.606;2023-10-13T09:25:50;15.07;;;4.80;;
4808;SDS011;2418;49.930;8.606;2023-10-13T09:28:23;10.30;;;5.07;;
4808;SDS011;2418;49.930;8.606;2023-10-13T09:30:54;6.63;;;4.45;;
4808;SDS011;2418;49.930;8.606;2023-10-13T09:33:26;12.50;;;4.75;;
4808;SDS011;2418;49.930;8.606;2023-10-13T09:36:05;5.40;;;4.20;;
4808;SDS011;2418;49.930;8.606;2023-10-13T09:38:37;4.60;;;4.20;;
4808;SDS011;2418;49.930;8.606;2023-10-13T09:41:13;6.70;;;4.80;;
4808;SDS011;2418;49.930;8.606;2023-10-13T09:43:51;6.22;;;4.28;;
4808;SDS011;2418;49.930;8.606;2023-10-13T09:46:21;5.10;;;4.18;;
4808;SDS011;2418;49.930;8.606;2023-10-13T09:48:48;6.23;;;4.30;;
4808;SDS011;2418;49.930;8.606;2023-10-13T09:51:34;4.82;;;4.43;;
4808;SDS011;2418;49.930;8.606;2023-10-13T09:54:27;6.70;;;4.65;;
4808;SDS011;2418;49.930;8.606;2023-10-13T09:57:00;7.10;;;4.38;;
4808;SDS011;2418;49.930;8.606;2023-10-13T09:59:52;8.05;;;5.40;;
4808;SDS011;2418;49.930;8.606;2023-10-13T10:02:21;8.30;;;4.60;;
4808;SDS011;2418;49.930;8.606;2023-10-13T10:04:55;10.40;;;4.97;;
4808;SDS011;2418;49.930;8.606;2023-10-13T10:07:37;7.07;;;4.50;;
4808;SDS011;2418;49.930;8.606;2023-10-13T10:10:05;4.97;;;4.38;;
4808;SDS011;2418;49.930;8.606;2023-10-13T10:17:59;8.10;;;4.50;;
4808;SDS011;2418;49.930;8.606;2023-10-13T10:23:07;6.75;;;4.72;;
4808;SDS011;2418;49.930;8.606;2023-10-13T10:25:47;7.88;;;4.00;;
4808;SDS011;2418;49.930;8.606;2023-10-13T10:28:15;11.38;;;4.38;;
4808;SDS011;2418;49.930;8.606;2023-10-13T10:30:42;7.10;;;3.63;;
4808;SDS011;2418;49.930;8.606;2023-10-13T10:33:09;8.70;;;3.70;;
4808;SDS011;2418;49.930;8.606;2023-10-13T10:35:40;8.73;;;4.70;;
4808;SDS011;2418;49.930;8.606;2023-10-13T10:38:16;6.78;;;4.15;;
4808;SDS011;2418;49.930;8.606;2023-10-13T10:40:53;13.20;;;4.77;;
4808;SDS011;2418;49.930;8.606;2023-10-13T10:43:25;6.60;;;4.43;;
4808;SDS011;2418;49.930;8.606;2023-10-13T10:45:53;8.37;;;4.60;;
4808;SDS011;2418;49.930;8.606;2023-10-13T10:48:24;7.82;;;4.70;;
4808;SDS011;2418;49.930;8.606;2023-10-13T10:50:56;8.07;;;4.28;;
4808;SDS011;2418;49.930;8.606;2023-10-13T10:53:24;5.03;;;3.97;;
4808;SDS011;2418;49.930;8.606;2023-10-13T10:56:06;4.72;;;4.32;;
4808;SDS011;2418;49.930;8.606;2023-10-13T10:58:57;7.05;;;4.72;;
4808;SDS011;2418;49.930;8.606;2023-10-13T11:01:27;5.90;;;4.40;;
4808;SDS011;2418;49.930;8.606;2023-10-13T11:04:04;7.90;;;4.45;;
4808;SDS011;2418;49.930;8.606;2023-10-13T11:06:36;8.18;;;3.80;;
4808;SDS011;2418;49.930;8.606;2023-10-13T11:09:12;6.05;;;4.40;;
4808;SDS011;2418;49.930;8.606;2023-10-13T11:14:38;6.15;;;4.90;;
4808;SDS011;2418;49.930;8.606;2023-10-13T11:17:05;8.27;;;4.90;;
4808;SDS011;2418;49.930;8.606;2023-10-13T11:19:45;6.53;;;4.80;;
4808;SDS011;2418;49.930;8.606;2023-10-13T11:25:00;5.18;;;4.78;;
4808;SDS011;2418;49.930;8.606;2023-10-13T11:27:34;7.43;;;5.05;;
4808;SDS011;2418;49.930;8.606;2023-10-13T11:30:10;5.72;;;4.85;;
4808;SDS011;2418;49.930;8.606;2023-10-13T11:32:39;5.93;;;4.53;;
4808;SDS011;2418;49.930;8.606;2023-10-13T11:35:07;6.95;;;4.90;;
4808;SDS011;2418;49.930;8.606;2023-10-13T11:37:45;13.65;;;5.35;;
4808;SDS011;2418;49.930;8.606;2023-10-13T11:40:20;5.18;;;4.05;;
4808;SDS011;2418;49.930;8.606;2023-10-13T11:43:06;9.77;;;4.72;;
4808;SDS011;2418;49.930;8.606;2023-10-13T11:45:38;5.20;;;4.70;;
4808;SDS011;2418;49.930;8.606;2023-10-13T11:48:17;8.05;;;5.40;;
4808;SDS011;2418;49.930;8.606;2023-10-13T11:50:58;6.93;;;4.90;;
4808;SDS011;2418;49.930;8.606;2023-10-13T11:53:32;4.65;;;4.40;;
4808;SDS011;2418;49.930;8.606;2023-10-13T11:55:58;8.50;;;5.40;;
4808;SDS011;2418;49.930;8.606;2023-10-13T11:58:24;5.38;;;4.45;;
4808;SDS011;2418;49.930;8.606;2023-10-13T12:00:50;5.40;;;4.90;;
4808;SDS011;2418;49.930;8.606;2023-10-13T12:03:33;5.55;;;5.05;;
4808;SDS011;2418;49.930;8.606;2023-10-13T12:06:18;6.88;;;4.80;;
4808;SDS011;2418;49.930;8.606;2023-10-13T12:09:08;8.15;;;4.70;;
4808;SDS011;2418;49.930;8.606;2023-10-13T12:11:44;9.38;;;4.95;;
4808;SDS011;2418;49.930;8.606;2023-10-13T12:14:13;6.10;;;4.65;;
4808;SDS011;2418;49.930;8.606;2023-10-13T12:16:43;8.63;;;5.00;;
4808;SDS011;2418;49.930;8.606;2023-10-13T12:19:13;6.10;;;4.50;;
4808;SDS011;2418;49.930;8.606;2023-10-13T12:21:41;5.15;;;4.65;;
4808;SDS011;2418;49.930;8.606;2023-10-13T12:24:08;7.15;;;4.50;;
4808;SDS011;2418;49.930;8.606;2023-10-13T12:26:48;6.63;;;4.40;;
4808;SDS011;2418;49.930;8.606;2023-10-13T12:29:20;4.60;;;4.22;;
4808;SDS011;2418;49.930;8.606;2023-10-13T12:31:48;6.90;;;4.47;;
4808;SDS011;2418;49.930;8.606;2023-10-13T12:34:33;5.27;;;4.57;;
4808;SDS011;2418;49.930;8.606;2023-10-13T12:37:18;8.25;;;4.72;;
4808;SDS011;2418;49.930;8.606;2023-10-13T12:40:08;12.85;;;4.50;;
4808;SDS011;2418;49.930;8.606;2023-10-13T12:42:53;9.15;;;4.05;;
4808;SDS011;2418;49.930;8.606;2023-10-13T12:45:42;9.70;;;4.50;;
4808;SDS011;2418;49.930;8.606;2023-10-13T12:48:26;5.88;;;4.57;;
4808;SDS011;2418;49.930;8.606;2023-10-13T12:51:12;5.32;;;4.45;;
4808;SDS011;2418;49.930;8.606;2023-10-13T12:53:54;4.35;;;4.05;;
4808;SDS011;2418;49.930;8.606;2023-10-13T12:56:27;8.50;;;4.27;;
4808;SDS011;2418;49.930;8.606;2023-10-13T12:58:53;6.35;;;4.82;;
4808;SDS011;2418;49.930;8.606;2023-10-13T13:01:20;4.88;;;4.38;;
4808;SDS011;2418;49.930;8.606;2023-10-13T13:03:49;7.95;;;4.35;;
4808;SDS011;2418;49.930;8.606;2023-10-13T13:06:22;6.93;;;4.47;;
4808;SDS011;2418;49.930;8.606;2023-10-13T13:08:57;8.95;;;4.00;;
4808;SDS011;2418;49.930;8.606;2023-10-13T13:11:23;4.50;;;4.20;;
4808;SDS011;2418;49.930;8.606;2023-10-13T13:13:50;7.53;;;4.03;;
4808;SDS011;2418;49.930;8.606;2023-10-13T13:16:17;5.97;;;4.60;;
4808;SDS011;2418;49.930;8.606;2023-10-13T13:18:44;11.55;;;4.40;;
4808;SDS011;2418;49.930;8.606;2023-10-13T13:21:10;5.85;;;3.85;;
4808;SDS011;2418;49.930;8.606;2023-10-13T13:23:38;8.15;;;4.10;;
4808;SDS011;2418;49.930;8.606;2023-10-13T13:26:05;8.82;;;3.70;;
4808;SDS011;2418;49.930;8.606;2023-10-13T13:28:41;7.18;;;3.50;;
4808;SDS011;2418;49.930;8.606;2023-10-13T13:31:07;5.90;;;3.30;;
4808;SDS011;2418;49.930;8.606;2023-10-13T13:33:40;5.68;;;3.47;;
4808;SDS011;2418;49.930;8.606;2023-10-13T13:36:10;3.35;;;3.15;;
4808;SDS011;2418;49.930;8.606;2023-10-13T13:38:40;4.70;;;3.38;;
4808;SDS011;2418;49.930;8.606;2023-10-13T13:41:13;7.47;;;4.40;;
4808;SDS011;2418;49.930;8.606;2023-10-13T13:43:44;4.10;;;3.22;;
4808;SDS011;2418;49.930;8.606;2023-10-13T13:46:23;6.88;;;3.50;;
4808;SDS011;2418;49.930;8.606;2023-10-13T13:48:50;9.68;;;4.63;;
4808;SDS011;2418;49.930;8.606;2023-10-13T13:51:17;4.85;;;3.22;;
4808;SDS011;2418;49.930;8.606;2023-10-13T13:53:46;6.20;;;3.25;;
4808;SDS011;2418;49.930;8.606;2023-10-13T13:56:13;5.38;;;3.38;;
4808;SDS011;2418;49.930;8.606;2023-10-13T13:58:42;3.88;;;3.40;;
4808;SDS011;2418;49.930;8.606;2023-10-13T14:01:08;5.30;;;3.50;;
4808;SDS011;2418;49.930;8.606;2023-10-13T14:03:40;13.20;;;3.70;;
4808;SDS011;2418;49.930;8.606;2023-10-13T14:06:14;8.07;;;3.72;;
4808;SDS011;2418;49.930;8.606;2023-10-13T14:08:47;7.55;;;3.30;;
4808;SDS011;2418;49.930;8.606;2023-10-13T14:11:19;15.18;;;4.25;;
4808;SDS011;2418;49.930;8.606;2023-10-13T14:14:13;10.75;;;3.30;;
4808;SDS011;2418;49.930;8.606;2023-10-13T14:16:59;8.95;;;3.67;;
4808;SDS011;2418;49.930;8.606;2023-10-13T14:19:31;13.00;;;3.10;;
4808;SDS011;2418;49.930;8.606;2023-10-13T14:22:01;12.02;;;4.28;;
4808;SDS011;2418;49.930;8.606;2023-10-13T14:24:37;10.73;;;3.80;;
4808;SDS011;2418;49.930;8.606;2023-10-13T14:27:08;4.60;;;3.10;;
4808;SDS011;2418;49.930;8.606;2023-10-13T14:29:42;14.13;;;3.80;;
4808;SDS011;2418;49.930;8.606;2023-10-13T14:32:12;14.93;;;3.90;;
4808;SDS011;2418;49.930;8.606;2023-10-13T14:34:40;5.68;;;3.95;;
4808;SDS011;2418;49.930;8.606;2023-10-13T14:37:12;7.00;;;3.20;;
4808;SDS011;2418;49.930;8.606;2023-10-13T14:39:41;4.60;;;3.60;;
4808;SDS011;2418;49.930;8.606;2023-10-13T14:42:07;6.60;;;3.70;;
4808;SDS011;2418;49.930;8.606;2023-10-13T14:44:34;6.00;;;3.42;;
4808;SDS011;2418;49.930;8.606;2023-10-13T14:47:00;4.28;;;3.40;;
4808;SDS011;2418;49.930;8.606;2023-10-13T14:49:27;8.20;;;3.53;;
4808;SDS011;2418;49.930;8.606;2023-10-13T14:51:53;10.10;;;3.53;;
4808;SDS011;2418;49.930;8.606;2023-10-13T14:54:24;4.10;;;3.35;;
4808;SDS011;2418;49.930;8.606;2023-10-13T14:56:58;10.52;;;4.00;;
4808;SDS011;2418;49.930;8.606;2023-10-13T14:59:25;5.43;;;3.30;;
4808;SDS011;2418;49.930;8.606;2023-10-13T15:01:51;6.80;;;3.70;;
4808;SDS011;2418;49.930;8.606;2023-10-13T15:04:18;11.35;;;3.83;;
4808;SDS011;2418;49.930;8.606;2023-10-13T15:06:50;6.78;;;3.30;;
4808;SDS011;2418;49.930;8.606;2023-10-13T15:09:16;11.37;;;4.10;;
4808;SDS011;2418;49.930;8.606;2023-10-13T15:11:48;8.77;;;3.30;;
4808;SDS011;2418;49.930;8.606;2023-10-13T15:14:14;7.53;;;4.10;;
4808;SDS011;2418;49.930;8.606;2023-10-13T15:16:40;5.88;;;3.90;;
4808;SDS011;2418;49.930;8.606;2023-10-13T15:19:08;4.33;;;3.30;;
4808;SDS011;2418;49.930;8.606;2023-10-13T15:21:35;13.82;;;4.47;;
4808;SDS011;2418;49.930;8.606;2023-10-13T15:24:01;10.48;;;3.90;;
4808;SDS011;2418;49.930;8.606;2023-10-13T15:26:41;6.32;;;3.47;;
4808;SDS011;2418;49.930;8.606;2023-10-13T15:29:17;9.80;;;3.50;;
4808;SDS011;2418;49.930;8.606;2023-10-13T15:31:46;8.40;;;3.53;;
4808;SDS011;2418;49.930;8.606;2023-10-13T15:34:24;16.70;;;4.90;;
4808;SDS011;2418;49.930;8.606;2023-10-13T15:36:53;12.50;;;4.40;;
4808;SDS011;2418;49.930;8.606;2023-10-13T15:39:20;18.70;;;4.30;;
4808;SDS011;2418;49.930;8.606;2023-10-13T15:41:53;10.50;;;4.40;;
4808;SDS011;2418;49.930;8.606;2023-10-13T15:44:24;20.58;;;4.75;;
4808;SDS011;2418;49.930;8.606;2023-10-13T15:46:53;21.10;;;4.20;;
4808;SDS011;2418;49.930;8.606;2023-10-13T15:49:20;14.50;;;4.70;;
4808;SDS011;2418;49.930;8.606;2023-10-13T15:51:46;9.80;;;5.10;;
4808;SDS011;2418;49.930;8.606;2023-10-13T15:54:13;8.38;;;4.30;;
4808;SDS011;2418;49.930;8.606;2023-10-13T15:56:45;10.60;;;4.00;;
4808;SDS011;2418;49.930;8.606;2023-10-13T15:59:13;9.82;;;4.95;;
4808;SDS011;2418;49.930;8.606;2023-10-13T16:01:41;7.05;;;4.28;;
4808;SDS011;2418;49.930;8.606;2023-10-13T16:04:07;7.30;;;4.05;;